Time;durP1;ratioP1;P1;durP2;ratioP2;P2;SDS_P1;SDS_P2;PMS_P1;PMS_P2;Temp;Humidity;BMP_temperature;BMP_pressure;BME280_temperature;BME280_humidity;BME280_pressure;Samples;Min_cycle;Max_cycle;Signal;HPM_P1;HPM_P2
2022/10/15 00:00:25;;;;;;;1.70;1.40;;;;;;;13.34;100.00;149391.88;5112864;28;20183;-57
2022/10/15 00:02:52;;;;;;;3.30;1.23;;;;;;;13.21;100.00;149358.94;5112740;28;20542;-57
2022/10/15 00:05:19;;;;;;;1.53;1.43;;;;;;;13.21;100.00;149360.22;5112378;28;20248;-57
2022/10/15 00:07:46;;;;;;;1.43;1.40;;;;;;;13.03;100.00;149313.28;5112590;28;20184;-57
2022/10/15 00:10:15;;;;;;;1.63;1.53;;;;;;;13.16;100.00;149347.53;5112691;28;20183;-57
2022/10/15 00:12:42;;;;;;;2.33;1.43;;;;;;;13.11;100.00;149334.84;5094869;28;20241;-58
2022/10/15 00:15:10;;;;;;;2.17;1.63;;;;;;;13.05;100.00;149319.63;5112508;28;20180;-56
2022/10/15 00:17:38;;;;;;;11.43;1.60;;;;;;;13.06;100.00;149322.19;5112631;28;20187;-57
2022/10/15 00:20:08;;;;;;;2.93;1.47;;;;;;;13.05;100.00;149318.38;5112375;28;20554;-56
2022/10/15 00:22:35;;;;;;;1.30;1.10;;;;;;;12.97;100.00;149299.38;5112530;28;20190;-56
2022/10/15 00:25:02;;;;;;;3.67;1.73;;;;;;;12.99;100.00;149304.41;5112268;28;20199;-56
2022/10/15 00:27:31;;;;;;;2.60;1.20;;;;;;;12.99;100.00;149304.41;5112140;28;20213;-57
2022/10/15 00:29:59;;;;;;;3.00;1.40;;;;;;;12.96;100.00;149296.84;5112132;28;20187;-57
2022/10/15 00:32:26;;;;;;;2.23;1.70;;;;;;;12.81;100.00;149258.88;5112103;28;20278;-57
2022/10/15 00:34:53;;;;;;;1.33;1.23;;;;;;;12.85;100.00;149269.00;5112060;28;20184;-56
2022/10/15 00:37:20;;;;;;;3.70;1.37;;;;;;;12.77;100.00;149248.72;5112446;28;20618;-57
2022/10/15 00:39:47;;;;;;;5.77;1.63;;;;;;;12.93;100.00;149289.25;5112175;28;20175;-55
2022/10/15 00:42:14;;;;;;;1.60;1.50;;;;;;;12.94;100.00;149291.78;5112334;28;20531;-57
2022/10/15 00:44:55;;;;;;;1.73;1.43;;;;;;;12.83;100.00;149263.91;5112137;28;20179;-56
2022/10/15 00:47:29;;;;;;;1.60;1.47;;;;;;;12.91;100.00;149284.16;5111954;28;20203;-58
2022/10/15 00:50:01;;;;;;;2.37;1.70;;;;;;;12.90;100.00;149281.63;5112127;28;20186;-56
2022/10/15 00:52:36;;;;;;;1.40;1.30;;;;;;;12.93;100.00;149287.97;5112044;28;20190;-57
2022/10/15 00:55:08;;;;;;;1.30;1.20;;;;;;;12.92;100.00;149286.72;5112125;28;20663;-56
2022/10/15 00:57:35;;;;;;;1.83;1.73;;;;;;;12.95;100.00;149293.03;5111962;28;20180;-56
2022/10/15 01:00:07;;;;;;;1.63;1.53;;;;;;;12.73;100.00;149239.84;5112406;28;20191;-56
2022/10/15 01:02:34;;;;;;;1.67;1.57;;;;;;;12.83;100.00;149263.91;5112137;28;20539;-58
2022/10/15 01:05:01;;;;;;;1.97;1.70;;;;;;;12.86;100.00;149270.25;5112291;28;20190;-57
2022/10/15 01:07:28;;;;;;;2.50;1.53;;;;;;;12.78;100.00;149252.50;5116038;28;20210;-57
2022/10/15 01:09:55;;;;;;;1.87;1.77;;;;;;;12.61;100.00;149209.44;5115706;28;20186;-56
2022/10/15 01:12:33;;;;;;;2.80;1.77;;;;;;;12.52;100.00;149186.66;5116047;28;20187;-56
2022/10/15 01:15:10;;;;;;;2.43;2.00;;;;;;;12.75;100.00;149243.66;5115607;28;20226;-57
2022/10/15 01:17:45;;;;;;;1.20;1.20;;;;;;;12.81;100.00;149258.88;5115630;28;20186;-56
2022/10/15 01:20:51;;;;;;;2.70;2.10;;;;;;;12.79;100.00;149255.06;5115706;28;20668;-56
2022/10/15 01:24:03;;;;;;;1.93;1.43;;;;;;;12.75;100.00;149243.66;5115614;28;20214;-57
2022/10/15 01:26:54;;;;;;;2.70;2.50;;;;;;;12.83;100.00;149265.19;5115401;28;20199;-57
2022/10/15 01:29:38;;;;;;;1.90;1.70;;;;;;;12.77;100.00;149248.72;5103946;28;20203;-57
2022/10/15 01:32:15;;;;;;;3.20;1.63;;;;;;;12.77;100.00;149248.72;5115354;28;20549;-57
2022/10/15 01:34:51;;;;;;;3.80;2.07;;;;;;;12.62;100.00;149212.00;5115613;28;20608;-56
2022/10/15 01:37:24;;;;;;;1.97;1.80;;;;;;;12.68;100.00;149225.94;5115577;28;20545;-56
2022/10/15 01:39:54;;;;;;;2.10;1.60;;;;;;;12.60;100.00;149205.69;5115175;28;20186;-56
2022/10/15 01:42:28;;;;;;;1.67;1.57;;;;;;;12.49;100.00;149179.06;5115245;28;20244;-57
2022/10/15 01:45:00;;;;;;;5.63;2.40;;;;;;;12.34;100.00;149142.41;5115300;28;20184;-56
2022/10/15 01:47:34;;;;;;;3.93;2.10;;;;;;;12.27;100.00;149124.63;5114937;28;20206;-56
2022/10/15 01:50:03;;;;;;;6.30;2.10;;;;;;;12.06;100.00;149070.22;5115118;28;20184;-57
2022/10/15 01:52:34;;;;;;;2.03;1.93;;;;;;;12.10;100.00;149081.59;5115352;28;20183;-56
2022/10/15 01:55:04;;;;;;;2.40;2.30;;;;;;;12.16;100.00;149095.53;5115412;28;20546;-56
2022/10/15 01:57:33;;;;;;;2.37;2.27;;;;;;;12.07;100.00;149074.03;5114799;28;20183;-57
2022/10/15 02:00:03;;;;;;;2.67;2.47;;;;;;;12.13;100.00;149089.22;5115132;28;20650;-57
2022/10/15 02:02:31;;;;;;;2.97;2.57;;;;;;;12.14;100.00;149091.72;5115190;28;20258;-57
2022/10/15 02:04:58;;;;;;;2.87;2.60;;;;;;;12.07;100.00;149072.75;5114910;28;20188;-57
2022/10/15 02:07:36;;;;;;;2.80;2.60;;;;;;;12.09;100.00;149079.09;5114877;28;20566;-56
2022/10/15 02:10:09;;;;;;;2.60;2.50;;;;;;;12.19;100.00;149104.41;5114775;28;20285;-57
2022/10/15 02:12:48;;;;;;;2.80;2.60;;;;;;;11.98;100.00;149051.25;5114891;28;20587;-56
2022/10/15 02:15:20;;;;;;;2.90;2.70;;;;;;;12.19;100.00;149104.41;5114642;28;20183;-56
2022/10/15 02:17:58;;;;;;;3.20;2.90;;;;;;;12.18;100.00;149100.56;5114232;28;20179;-57
2022/10/15 02:20:31;;;;;;;4.97;3.30;;;;;;;12.10;100.00;149081.59;5114616;28;20604;-57
2022/10/15 02:23:04;;;;;;;3.03;2.80;;;;;;;12.22;100.00;149111.97;5114754;28;20187;-57
2022/10/15 02:25:34;;;;;;;3.20;3.00;;;;;;;12.15;100.00;149094.25;5096792;28;20547;-57
2022/10/15 02:28:03;;;;;;;3.90;2.73;;;;;;;12.22;100.00;149111.97;5114325;28;20207;-56
2022/10/15 02:30:33;;;;;;;7.83;3.00;;;;;;;12.32;100.00;149137.31;5114427;28;20183;-57
2022/10/15 02:33:01;;;;;;;3.87;3.30;;;;;;;12.28;100.00;149127.19;5114489;28;20236;-56
2022/10/15 02:35:28;;;;;;;5.10;3.43;;;;;;;12.30;100.00;149132.25;5114102;28;20187;-56
2022/10/15 02:37:58;;;;;;;3.10;2.90;;;;;;;12.35;100.00;149143.63;5114574;28;20561;-57
2022/10/15 02:40:29;;;;;;;3.93;3.07;;;;;;;12.35;100.00;149143.63;5114291;28;20191;-57
2022/10/15 02:42:56;;;;;;;5.80;2.93;;;;;;;12.18;100.00;149101.84;5114063;28;20193;-57
2022/10/15 02:45:23;;;;;;;6.57;3.10;;;;;;;12.29;100.00;149129.72;5113866;28;20183;-57
2022/10/15 02:47:50;;;;;;;3.30;3.00;;;;;;;12.28;100.00;149127.19;5113905;28;20215;-57
2022/10/15 02:50:18;;;;;;;5.50;3.30;;;;;;;12.17;100.00;149099.34;5113745;28;20194;-57
2022/10/15 02:52:45;;;;;;;3.47;3.27;;;;;;;12.16;100.00;149096.81;5114069;28;20187;-57
2022/10/15 02:55:12;;;;;;;3.90;3.67;;;;;;;12.17;100.00;149098.09;5114175;28;20628;-56
2022/10/15 02:57:39;;;;;;;6.53;3.50;;;;;;;12.20;100.00;149105.66;5113703;28;20186;-57
2022/10/15 03:00:07;;;;;;;10.37;4.40;;;;;;;12.10;100.00;149080.34;5113697;28;20183;-57
2022/10/15 03:02:34;;;;;;;4.33;4.03;;;;;;;12.09;100.00;149079.09;5113638;28;20196;-57
2022/10/15 03:05:01;;;;;;;6.53;4.30;;;;;;;12.10;100.00;149080.34;5113767;28;20194;-57
2022/10/15 03:07:29;;;;;;;8.70;4.47;;;;;;;11.87;100.00;149023.41;5095393;28;20203;-55
2022/10/15 03:09:56;;;;;;;4.17;3.80;;;;;;;12.03;100.00;149063.91;5113439;28;20189;-56
2022/10/15 03:12:24;;;;;;;5.27;4.73;;;;;;;12.08;100.00;149075.28;5113535;28;20188;-57
2022/10/15 03:14:51;;;;;;;4.87;4.67;;;;;;;11.97;100.00;149047.41;5113311;28;20284;-57
2022/10/15 03:17:18;;;;;;;4.77;4.37;;;;;;;11.96;100.00;149046.19;5113468;28;20202;-57
2022/10/15 03:19:45;;;;;;;5.77;4.77;;;;;;;12.05;100.00;149068.94;5113153;28;20206;-56
2022/10/15 03:22:12;;;;;;;6.97;5.87;;;;;;;11.92;100.00;149034.81;5113282;28;20198;-57
2022/10/15 03:24:40;;;;;;;5.50;5.10;;;;;;;12.03;100.00;149063.91;5113422;28;20190;-58
2022/10/15 03:27:07;;;;;;;5.67;5.13;;;;;;;12.03;100.00;149063.91;5112872;28;20207;-57
2022/10/15 03:29:34;;;;;;;5.40;4.93;;;;;;;12.09;100.00;149077.84;5112853;28;20577;-56
2022/10/15 03:32:01;;;;;;;8.03;4.97;;;;;;;12.14;100.00;149091.72;5113193;28;20183;-56
2022/10/15 03:34:28;;;;;;;5.00;4.67;;;;;;;12.06;100.00;149070.22;5112954;28;20183;-58
2022/10/15 03:36:55;;;;;;;6.33;5.17;;;;;;;12.25;100.00;149118.31;5112918;28;20180;-57
2022/10/15 03:39:22;;;;;;;5.27;4.87;;;;;;;12.29;100.00;149129.72;5112864;28;20193;-57
2022/10/15 03:41:52;;;;;;;5.20;4.80;;;;;;;12.36;100.00;149147.44;5112954;28;20190;-57
2022/10/15 03:44:19;;;;;;;7.17;5.07;;;;;;;12.37;100.00;149148.69;5113112;28;20191;-56
2022/10/15 03:46:46;;;;;;;5.20;5.00;;;;;;;12.38;100.00;149149.97;5112703;28;20190;-57
2022/10/15 03:49:13;;;;;;;6.10;5.30;;;;;;;12.34;100.00;149142.41;5112682;28;20186;-56
2022/10/15 03:51:40;;;;;;;5.83;5.00;;;;;;;12.39;100.00;149153.75;5113059;28;20596;-58
2022/10/15 03:54:07;;;;;;;5.37;4.87;;;;;;;12.43;100.00;149162.63;5112884;28;20179;-57
2022/10/15 03:56:34;;;;;;;11.40;5.03;;;;;;;12.39;100.00;149152.50;5112960;28;20191;-57
2022/10/15 03:59:02;;;;;;;5.70;5.40;;;;;;;12.42;100.00;149160.09;5112836;28;20184;-55
2022/10/15 04:01:29;;;;;;;5.60;5.20;;;;;;;12.35;100.00;148023.31;5112786;28;20186;-56
2022/10/15 04:03:56;;;;;;;5.83;5.53;;;;;;;12.31;100.00;120138.13;5112679;28;20258;-56
2022/10/15 04:06:23;;;;;;;9.87;6.60;;;;;;;12.46;100.00;90741.97;5112748;28;20209;-58
2022/10/15 04:08:50;;;;;;;7.33;6.37;;;;;;;12.44;100.00;52758.59;5112871;28;20555;-57
2022/10/15 04:11:17;;;;;;;8.03;7.07;;;;;;;12.43;100.00;41056.22;5112438;28;20187;-57
2022/10/15 04:13:47;;;;;;;7.13;6.73;;;;;;;12.39;100.00;43325.19;5112682;28;20634;-56
2022/10/15 04:16:16;;;;;;;7.33;6.77;;;;;;;12.21;100.00;42013.84;5112612;28;20195;-56
2022/10/15 04:18:43;;;;;;;7.87;7.07;;;;;;;12.14;100.00;35526.78;5112565;28;20202;-58
2022/10/15 04:21:10;;;;;;;7.93;7.33;;;;;;;12.20;100.00;31323.69;5112192;28;20223;-57
2022/10/15 04:23:37;;;;;;;8.97;8.37;;;;;;;12.19;100.00;29060.09;5112582;28;20187;-57
2022/10/15 04:26:04;;;;;;;8.73;7.90;;;;;;;12.13;100.00;28410.97;5112542;28;20286;-56
2022/10/15 04:28:32;;;;;;;8.03;7.50;;;;;;;11.97;100.00;29371.84;5112413;28;20214;-57
2022/10/15 04:30:59;;;;;;;9.53;8.50;;;;;;;12.15;100.00;30027.88;5111191;28;20553;-58
2022/10/15 04:33:28;;;;;;;9.00;8.30;;;;;;;12.17;100.00;28735.91;5112157;28;20190;-56
2022/10/15 04:36:00;;;;;;;13.43;8.37;;;;;;;12.17;100.00;31968.84;5112120;28;20180;-56
2022/10/15 04:38:27;;;;;;;10.50;7.90;;;;;;;12.21;100.00;33912.84;5112520;28;20206;-57
2022/10/15 04:41:02;;;;;;;8.13;7.57;;;;;;;12.25;100.00;35857.63;5115981;28;20183;-57
2022/10/15 04:43:29;;;;;;;7.97;7.40;;;;;;;12.12;100.00;37144.75;5116273;28;20182;-56
2022/10/15 04:45:58;;;;;;;8.03;7.33;;;;;;;12.31;100.00;38778.19;5116566;28;20187;-56
2022/10/15 04:48:25;;;;;;;8.00;7.60;;;;;;;12.42;100.00;40406.66;5116071;28;20207;-56
2022/10/15 04:50:53;;;;;;;8.43;7.43;;;;;;;12.48;100.00;42033.44;5116152;28;20183;-56
2022/10/15 04:53:21;;;;;;;9.13;8.30;;;;;;;12.55;100.00;48537.78;5116094;28;20183;-56
2022/10/15 04:55:48;;;;;;;7.63;7.33;;;;;;;12.57;100.00;50491.16;5116041;28;20197;-56
2022/10/15 04:58:15;;;;;;;7.67;7.20;;;;;;;12.41;100.00;53732.25;5116062;28;20445;-57
2022/10/15 05:00:42;;;;;;;7.53;6.90;;;;;;;12.65;100.00;55384.56;5116331;28;20556;-57
2022/10/15 05:03:08;;;;;;;7.53;6.83;;;;;;;12.76;100.00;56373.34;5097629;28;20195;-56
2022/10/15 05:05:35;;;;;;;8.67;7.87;;;;;;;12.81;100.00;59967.19;5115829;28;20195;-57
2022/10/15 05:08:05;;;;;;;7.27;6.87;;;;;;;12.91;100.00;63898.28;5115712;28;20207;-57
2022/10/15 05:10:32;;;;;;;7.93;7.43;;;;;;;13.02;100.00;68163.19;5115738;28;20190;-58
2022/10/15 05:12:59;;;;;;;7.83;7.23;;;;;;;13.16;100.00;72767.06;5115646;28;20190;-57
2022/10/15 05:15:26;;;;;;;7.63;6.97;;;;;;;13.32;100.00;79352.34;5115981;28;20689;-58
2022/10/15 05:17:54;;;;;;;7.43;6.77;;;;;;;13.46;100.00;83646.91;5115918;28;20527;-56
2022/10/15 05:20:21;;;;;;;6.93;6.63;;;;;;;13.44;100.00;89902.34;5115751;28;20819;-58
2022/10/15 05:22:48;;;;;;;7.07;6.67;;;;;;;13.42;100.00;102450.25;5115894;28;20589;-57
2022/10/15 05:25:17;;;;;;;6.87;6.30;;;;;;;13.56;100.00;100488.72;5115827;28;20221;-56
2022/10/15 05:27:44;;;;;;;21.97;8.63;;;;;;;13.66;100.00;106466.34;5115462;28;20207;-56
2022/10/15 05:30:11;;;;;;;11.53;7.33;;;;;;;13.84;100.00;113465.91;5115475;28;20188;-57
2022/10/15 05:32:38;;;;;;;8.13;6.43;;;;;;;13.92;100.00;123459.84;5115340;28;20275;-57
2022/10/15 05:35:07;;;;;;;7.27;6.40;;;;;;;14.11;100.00;141764.81;5115843;28;20369;-56
2022/10/15 05:37:34;;;;;;;13.57;7.33;;;;;;;14.22;100.00;148063.84;5115342;28;20190;-57
2022/10/15 05:40:01;;;;;;;7.70;6.83;;;;;;;14.28;100.00;149626.31;5115180;28;20183;-56
2022/10/15 05:42:30;;;;;;;7.63;7.07;;;;;;;14.43;100.00;149664.38;5115188;28;20188;-57
2022/10/15 05:44:57;;;;;;;8.27;6.60;;;;;;;14.48;100.00;149677.06;5115071;28;20196;-56
2022/10/15 05:47:24;;;;;;;8.43;7.03;;;;;;;14.44;100.00;149666.94;5115124;28;20188;-57
2022/10/15 05:49:51;;;;;;;6.30;5.87;;;;;;;14.55;100.00;149694.84;5114985;28;20225;-56
2022/10/15 05:52:18;;;;;;;6.47;5.90;;;;;;;14.44;100.00;149666.94;5114182;28;20186;-56
2022/10/15 05:54:45;;;;;;;7.83;6.90;;;;;;;14.42;100.00;149663.16;5114903;28;20190;-57
2022/10/15 05:57:12;;;;;;;7.23;6.60;;;;;;;14.44;100.00;149668.19;5115193;28;20237;-56
2022/10/15 05:59:40;;;;;;;11.20;7.20;;;;;;;14.49;100.00;149679.63;5114102;28;20553;-57
2022/10/15 06:02:14;;;;;;;7.37;6.83;;;;;;;14.59;100.00;149706.28;5114940;28;20213;-57
2022/10/15 06:04:41;;;;;;;7.10;6.50;;;;;;;14.46;100.00;149673.31;5115044;28;20608;-57
2022/10/15 06:07:08;;;;;;;6.93;6.33;;;;;;;14.35;100.00;149645.38;5114940;28;20562;-57
2022/10/15 06:09:35;;;;;;;9.73;6.97;;;;;;;14.40;100.00;149656.78;5114546;28;20204;-56
2022/10/15 06:12:02;;;;;;;16.97;7.10;;;;;;;14.47;100.00;149675.78;5114899;28;20553;-56
2022/10/15 06:14:29;;;;;;;14.27;6.80;;;;;;;14.52;100.00;149687.22;5114510;28;20187;-57
2022/10/15 06:16:58;;;;;;;9.50;7.00;;;;;;;14.48;100.00;149677.06;5114806;28;20638;-57
2022/10/15 06:19:25;;;;;;;8.77;6.10;;;;;;;14.55;100.00;149696.06;5114761;28;20195;-56
2022/10/15 06:21:52;;;;;;;8.93;7.10;;;;;;;14.71;100.00;149735.44;5114291;28;20227;-56
2022/10/15 06:24:19;;;;;;;7.07;6.20;;;;;;;14.82;100.00;149763.31;5114964;28;20270;-57
2022/10/15 06:26:46;;;;;;;7.20;6.27;;;;;;;14.66;100.00;149722.72;5114277;28;20183;-57
2022/10/15 06:29:13;;;;;;;9.60;6.70;;;;;;;14.60;100.00;149707.50;5114299;28;20215;-55
2022/10/15 06:31:39;;;;;;;7.70;5.73;;;;;;;14.74;100.00;149741.75;5114679;28;20662;-56
2022/10/15 06:34:08;;;;;;;9.30;6.57;;;;;;;14.78;100.00;149753.16;5114245;28;20228;-57
2022/10/15 06:36:35;;;;;;;9.70;6.80;;;;;;;14.73;100.00;149740.47;5114708;28;20191;-56
2022/10/15 06:39:03;;;;;;;7.90;6.23;;;;;;;14.89;100.00;149781.09;5114106;28;20218;-57
2022/10/15 06:41:30;;;;;;;10.63;6.30;;;;;;;14.85;100.00;149770.91;5114013;28;20183;-55
2022/10/15 06:43:57;;;;;;;6.87;6.17;;;;;;;15.02;100.00;149814.03;5114156;28;20191;-57
2022/10/15 06:46:24;;;;;;;6.90;5.83;;;;;;;14.90;100.00;149783.59;5113948;28;20205;-58
2022/10/15 06:48:51;;;;;;;11.37;6.00;;;;;;;14.89;100.00;149779.81;5114051;28;20205;-57
2022/10/15 06:51:19;;;;;;;9.80;6.07;;;;;;;15.18;100.00;149852.13;5113817;28;20282;-56
2022/10/15 06:53:46;;;;;;;6.87;6.27;;;;;;;15.23;100.00;149864.81;5114168;28;20476;-56
2022/10/15 06:56:13;;;;;;;9.80;5.97;;;;;;;15.31;100.00;149885.09;5113827;28;20267;-57
2022/10/15 06:58:42;;;;;;;7.37;5.70;;;;;;;15.43;100.00;149916.81;5114162;28;20194;-56
2022/10/15 07:01:09;;;;;;;5.63;5.23;;;;;;;15.49;100.00;149930.75;5113626;28;20184;-56
2022/10/15 07:03:37;;;;;;;6.13;4.83;;;;;;;15.77;100.00;150001.88;5112458;28;20187;-56
2022/10/15 07:06:06;;;;;;;9.10;5.60;;;;;;;15.85;100.00;150022.19;5113631;28;20187;-57
2022/10/15 07:08:35;;;;;;;9.33;5.47;;;;;;;15.89;100.00;150032.34;5113710;28;20295;-59
2022/10/15 07:11:02;;;;;;;7.27;4.47;;;;;;;15.97;100.00;150052.66;5113419;28;20188;-56
2022/10/15 07:13:30;;;;;;;5.17;4.50;;;;;;;16.14;100.00;150093.25;5113388;28;20248;-58
2022/10/15 07:15:57;;;;;;;13.43;4.60;;;;;;;16.07;100.00;150076.78;5113588;28;20183;-57
2022/10/15 07:18:24;;;;;;;5.00;4.27;;;;;;;16.18;100.00;150103.41;5113675;28;20665;-56
2022/10/15 07:20:51;;;;;;;4.47;4.10;;;;;;;16.12;100.00;150088.22;5113431;28;20222;-58
2022/10/15 07:23:17;;;;;;;4.03;3.73;;;;;;;16.12;100.00;150088.22;5113245;28;20184;-57
2022/10/15 07:25:46;;;;;;;3.87;3.57;;;;;;;16.30;100.00;150133.88;5113281;28;20190;-56
2022/10/15 07:28:13;;;;;;;4.00;3.53;;;;;;;16.36;100.00;150150.41;5113336;28;20207;-57
2022/10/15 07:30:39;;;;;;;6.63;3.93;;;;;;;16.40;100.00;150159.28;5113375;28;20183;-57
2022/10/15 07:33:06;;;;;;;3.97;3.77;;;;;;;16.39;100.00;150156.72;5112941;28;20187;-57
2022/10/15 07:35:33;;;;;;;4.73;4.23;;;;;;;16.47;100.00;150177.06;5113283;28;20214;-55
2022/10/15 07:38:01;;;;;;;4.53;4.23;;;;;;;16.71;100.00;150236.81;5112826;28;20179;-56
2022/10/15 07:40:27;;;;;;;4.90;3.80;;;;;;;16.64;100.00;150220.28;5113009;28;20199;-56
2022/10/15 07:42:57;;;;;;;4.00;3.80;;;;;;;16.92;100.00;150288.88;5113160;28;20561;-56
2022/10/15 07:45:25;;;;;;;10.60;3.90;;;;;;;17.29;100.00;150382.88;5112773;28;20187;-56
2022/10/15 07:47:52;;;;;;;4.93;4.13;;;;;;;17.56;100.00;150451.53;5113034;28;20554;-57
2022/10/15 07:50:20;;;;;;;5.17;4.80;;;;;;;17.48;100.00;150429.91;5112806;28;20186;-56
2022/10/15 07:52:48;;;;;;;5.40;5.10;;;;;;;17.35;100.00;150398.16;5113045;28;20565;-57
2022/10/15 07:55:14;;;;;;;5.23;4.93;;;;;;;17.20;100.00;150360.00;5112890;28;20226;-56
2022/10/15 07:57:41;;;;;;;7.87;5.23;;;;;;;17.32;100.00;150390.50;5112785;28;20275;-56
2022/10/15 08:00:11;;;;;;;4.53;4.23;;;;;;;17.62;100.00;150465.53;5112872;28;20637;-56
2022/10/15 08:02:38;;;;;;;4.73;4.43;;;;;;;17.63;100.00;150468.06;5112506;28;20270;-57
2022/10/15 08:05:06;;;;;;;4.40;4.03;;;;;;;17.88;100.00;150530.34;5112427;28;20188;-57
2022/10/15 08:07:33;;;;;;;4.47;4.23;;;;;;;17.93;100.00;150544.34;5112432;28;20278;-56
2022/10/15 08:09:59;;;;;;;4.70;4.40;;;;;;;18.00;100.00;150560.84;5094694;28;20204;-57
2022/10/15 08:12:26;;;;;;;4.83;4.53;;;;;;;18.10;100.00;150586.28;5112404;28;20194;-57
2022/10/15 08:14:53;;;;;;;5.73;4.47;;;;;;;17.97;100.00;150553.22;5112097;28;20187;-57
2022/10/15 08:17:22;;;;;;;6.77;6.00;;;;;;;18.14;100.00;150596.47;5112438;28;20183;-57
2022/10/15 08:19:49;;;;;;;7.17;6.77;;;;;;;18.21;100.00;150614.25;5112378;28;20198;-57
2022/10/15 08:22:16;;;;;;;7.07;6.57;;;;;;;18.23;100.00;150619.34;5112326;28;20191;-57
2022/10/15 08:24:43;;;;;;;6.17;5.63;;;;;;;18.55;100.00;150700.75;5112278;28;20198;-57
2022/10/15 08:27:10;;;;;;;8.37;7.73;;;;;;;18.57;100.00;150705.88;5112476;28;20189;-56
2022/10/15 08:29:37;;;;;;;7.73;7.20;;;;;;;18.78;100.00;150756.75;5112186;28;20203;-58
2022/10/15 08:32:04;;;;;;;8.93;7.97;;;;;;;18.66;100.00;150728.78;5112410;28;20214;-57
2022/10/15 08:34:32;;;;;;;8.97;7.67;;;;;;;19.15;100.00;150850.88;5112175;28;20266;-56
2022/10/15 08:36:59;;;;;;;7.23;6.90;;;;;;;19.43;100.00;150920.94;5112460;28;20187;-57
2022/10/15 08:39:27;;;;;;;6.93;6.37;;;;;;;19.32;100.00;150894.13;5112167;28;20179;-58
2022/10/15 08:41:57;;;;;;;15.97;5.70;;;;;;;19.36;100.00;150903.03;5112349;28;20594;-57
2022/10/15 08:44:27;;;;;;;5.70;5.37;;;;;;;19.73;100.00;150996.03;5112405;28;20569;-58
2022/10/15 08:46:59;;;;;;;6.10;5.50;;;;;;;20.36;100.00;151156.47;5112042;28;20197;-57
2022/10/15 08:49:48;;;;;;;5.67;5.27;;;;;;;21.04;100.00;151325.88;5112428;28;20668;-57
2022/10/15 08:52:21;;;;;;;5.80;5.28;;;;;;;21.51;97.15;151444.44;5112324;28;20194;-58
2022/10/15 08:54:48;;;;;;;6.47;5.88;;;;;;;21.75;94.93;151505.59;5112284;28;20194;-58
2022/10/15 08:57:36;;;;;;;5.25;4.95;;;;;;;21.99;91.98;151565.53;5112051;28;20195;-59
2022/10/15 09:00:11;;;;;;;5.93;4.88;;;;;;;21.77;88.57;151510.66;5112168;28;20644;-57
2022/10/15 09:02:44;;;;;;;5.70;4.93;;;;;;;22.39;83.02;151667.56;5112269;28;20193;-59
2022/10/15 09:05:28;;;;;;;4.45;4.25;;;;;;;21.68;86.02;151489.03;5111853;28;20180;-58
2022/10/15 09:08:03;;;;;;;3.92;3.50;;;;;;;21.47;86.82;151434.25;5112242;28;20558;-58
2022/10/15 09:10:37;;;;;;;3.42;3.22;;;;;;;21.63;88.47;151476.28;5112042;28;20569;-57
2022/10/15 09:13:11;;;;;;;3.67;3.22;;;;;;;21.22;93.28;151373.03;5111785;28;20190;-58
2022/10/15 09:15:47;;;;;;;3.75;3.38;;;;;;;21.38;93.08;151412.56;5111713;28;20183;-57
2022/10/15 09:18:19;;;;;;;3.28;2.92;;;;;;;21.35;94.44;151406.16;5111997;28;20183;-58
2022/10/15 09:20:48;;;;;;;4.53;3.15;;;;;;;20.70;100.00;151240.53;5111808;28;20601;-58
2022/10/15 09:23:18;;;;;;;6.00;3.40;;;;;;;21.22;100.00;151373.03;5111948;28;20588;-57
2022/10/15 09:25:52;;;;;;;6.75;3.67;;;;;;;20.92;100.00;151297.81;5112032;28;20554;-58
2022/10/15 09:28:24;;;;;;;3.70;3.47;;;;;;;21.38;100.00;151413.84;5115361;28;20191;-57
2022/10/15 09:30:54;;;;;;;3.40;3.13;;;;;;;20.96;100.00;151308.00;5115331;28;20187;-58
2022/10/15 09:33:33;;;;;;;2.97;2.75;;;;;;;19.55;100.00;150952.75;5115732;28;20232;-57
2022/10/15 09:36:14;;;;;;;5.00;2.90;;;;;;;19.28;100.00;150882.69;5114450;28;20546;-56
2022/10/15 09:38:52;;;;;;;2.03;1.93;;;;;;;18.92;100.00;150793.66;5115445;28;20187;-57
2022/10/15 09:41:29;;;;;;;2.47;2.27;;;;;;;19.35;100.00;150901.75;5115398;28;20187;-58
2022/10/15 09:44:00;;;;;;;2.73;2.53;;;;;;;18.58;100.00;150707.16;5115111;28;20190;-56
2022/10/15 09:46:27;;;;;;;2.40;2.00;;;;;;;18.29;100.00;150634.59;5115008;28;20190;-57
2022/10/15 09:49:03;;;;;;;2.23;2.03;;;;;;;18.17;100.00;150604.06;5115013;28;20219;-58
2022/10/15 09:51:36;;;;;;;2.47;2.20;;;;;;;17.91;100.00;150538.00;5114101;28;20184;-57
2022/10/15 09:54:11;;;;;;;3.90;2.07;;;;;;;17.63;100.00;150469.34;5115176;28;20188;-57
2022/10/15 09:56:43;;;;;;;2.03;1.50;;;;;;;17.86;100.00;150525.28;5115034;28;20194;-56
2022/10/15 09:59:16;;;;;;;9.90;2.30;;;;;;;18.16;100.00;150601.56;5115048;28;20183;-56
2022/10/15 10:01:57;;;;;;;1.57;1.47;;;;;;;18.60;100.00;150712.22;5115056;28;20640;-56
2022/10/15 10:04:27;;;;;;;3.30;2.00;;;;;;;18.23;100.00;150620.63;5115308;28;20190;-55
2022/10/15 10:06:58;;;;;;;2.80;1.90;;;;;;;18.40;100.00;150662.59;5114761;28;20186;-57
2022/10/15 10:09:29;;;;;;;3.27;2.23;;;;;;;18.44;100.00;150671.47;5114797;28;20211;-56
2022/10/15 10:11:59;;;;;;;1.97;1.83;;;;;;;18.38;100.00;150656.19;5115027;28;20236;-57
2022/10/15 10:14:30;;;;;;;4.27;2.27;;;;;;;18.48;100.00;150681.66;5114971;28;20205;-56
2022/10/15 10:17:18;;;;;;;4.43;2.33;;;;;;;18.30;100.00;150637.13;5114533;28;20220;-57
2022/10/15 10:20:02;;;;;;;1.90;1.80;;;;;;;18.21;100.00;150615.53;5114765;28;20221;-57
2022/10/15 10:22:30;;;;;;;3.80;1.77;;;;;;;18.23;100.00;150619.34;5114563;28;20282;-57
2022/10/15 10:24:57;;;;;;;2.70;2.50;;;;;;;18.49;100.00;150685.50;5096749;28;20266;-57
2022/10/15 10:27:29;;;;;;;4.27;2.13;;;;;;;18.16;100.00;150602.81;5114654;28;20188;-57
2022/10/15 10:29:59;;;;;;;2.63;1.97;;;;;;;18.49;100.00;150684.22;5114122;28;20203;-57
2022/10/15 10:32:30;;;;;;;2.20;2.10;;;;;;;18.27;100.00;150629.53;5114580;28;20262;-57
2022/10/15 10:34:59;;;;;;;3.13;2.07;;;;;;;18.32;100.00;150642.25;5114174;28;20184;-58
2022/10/15 10:37:26;;;;;;;5.73;2.87;;;;;;;18.02;100.00;150565.97;5114166;28;20187;-57
2022/10/15 10:39:57;;;;;;;2.87;2.60;;;;;;;18.03;100.00;150569.78;5114446;28;20211;-56
2022/10/15 10:42:37;;;;;;;2.90;2.50;;;;;;;17.86;100.00;150525.28;5114392;28;20187;-57
2022/10/15 10:45:18;;;;;;;4.77;3.07;;;;;;;17.84;100.00;150520.19;5113943;28;20194;-56
2022/10/15 10:47:45;;;;;;;2.57;2.03;;;;;;;17.94;100.00;150546.91;5114164;28;20198;-57
2022/10/15 10:50:28;;;;;;;3.20;2.30;;;;;;;17.78;100.00;150507.47;5113838;28;20203;-56
2022/10/15 10:52:56;;;;;;;4.03;2.60;;;;;;;17.71;100.00;150489.69;5113880;28;20183;-57
2022/10/15 10:55:34;;;;;;;7.17;2.90;;;;;;;17.25;100.00;150372.72;5114132;28;20184;-56
2022/10/15 10:58:02;;;;;;;5.07;2.97;;;;;;;17.31;100.00;150389.22;5113820;28;20190;-57
2022/10/15 11:00:38;;;;;;;2.10;1.97;;;;;;;17.41;100.00;150413.38;5113725;28;20275;-57
2022/10/15 11:03:06;;;;;;;2.50;1.80;;;;;;;17.14;100.00;150344.78;5113934;28;20552;-55
2022/10/15 11:05:38;;;;;;;2.13;2.03;;;;;;;17.21;100.00;150363.84;5113974;28;20194;-58
2022/10/15 11:08:14;;;;;;;2.30;2.10;;;;;;;17.10;100.00;150334.63;5112573;28;20190;-56
2022/10/15 11:10:50;;;;;;;3.07;2.03;;;;;;;17.24;100.00;150370.16;5113445;28;20211;-56
2022/10/15 11:13:32;;;;;;;2.43;2.23;;;;;;;17.43;100.00;150418.47;5113369;28;20183;-56
2022/10/15 11:16:03;;;;;;;3.50;2.13;;;;;;;17.39;100.00;150408.31;5113346;28;20186;-56
2022/10/15 11:18:48;;;;;;;3.00;2.50;;;;;;;17.27;100.00;150379.06;5113287;28;20187;-56
2022/10/15 11:21:23;;;;;;;3.70;2.10;;;;;;;17.10;100.00;150334.63;5113254;28;20633;-58
2022/10/15 11:24:10;;;;;;;8.93;2.97;;;;;;;17.51;100.00;150438.81;5113734;28;20183;-56
2022/10/15 11:27:02;;;;;;;6.93;2.73;;;;;;;17.41;100.00;150413.38;5113168;28;20201;-56
2022/10/15 11:29:35;;;;;;;4.93;2.50;;;;;;;17.65;100.00;150474.41;5113101;28;20206;-57